Terminal Aerodrome Forecast
Issued by NWS Buffalo, NY

Home | Current Version | Previous Version | Text Only | Print | Product List | Glossary On
Versions: 1 2 3 4 5 6 7 8 9 10 11 12 13 14 15 16 17 18 19 20 21 22 23 24 25 26 27
000
FTUS41 KBUF 160900 AAA
TAFROC
TAF AMD
KROC 160904Z 1609/1706 31008KT P6SM SCT025 BKN035
      TEMPO 1609/1611 BKN025
     FM161200 31011KT P6SM FEW045 FEW250
     FM162000 35009KT P6SM FEW050 FEW250
     FM162300 04005KT P6SM FEW250
     FM170100 VRB03KT P6SM FEW250=

USA.gov is the U.S. government's official web portal to all federal, state and local government web resources and services.